sensor_id;sensor_type;location;lat;lon;timestamp;P1;durP1;ratioP1;P2;durP2;ratioP2
21630;SDS011;10977;46.802;11.952;2022-10-18T00:00:41;11.05;;;7.30;;
21630;SDS011;10977;46.802;11.952;2022-10-18T00:03:07;9.43;;;7.05;;
21630;SDS011;10977;46.802;11.952;2022-10-18T00:05:33;9.50;;;6.68;;
21630;SDS011;10977;46.802;11.952;2022-10-18T00:07:58;9.68;;;6.82;;
21630;SDS011;10977;46.802;11.952;2022-10-18T00:10:24;10.38;;;7.03;;
21630;SDS011;10977;46.802;11.952;2022-10-18T00:12:50;7.72;;;6.00;;
21630;SDS011;10977;46.802;11.952;2022-10-18T00:15:16;9.23;;;6.50;;
21630;SDS011;10977;46.802;11.952;2022-10-18T00:17:42;9.25;;;6.10;;
21630;SDS011;10977;46.802;11.952;2022-10-18T00:20:07;12.38;;;6.50;;
21630;SDS011;10977;46.802;11.952;2022-10-18T00:22:34;8.23;;;6.60;;
21630;SDS011;10977;46.802;11.952;2022-10-18T00:25:01;9.93;;;6.40;;
21630;SDS011;10977;46.802;11.952;2022-10-18T00:27:28;8.02;;;5.93;;
21630;SDS011;10977;46.802;11.952;2022-10-18T00:29:53;10.60;;;6.93;;
21630;SDS011;10977;46.802;11.952;2022-10-18T00:32:19;8.23;;;6.05;;
21630;SDS011;10977;46.802;11.952;2022-10-18T00:34:44;12.45;;;6.18;;
21630;SDS011;10977;46.802;11.952;2022-10-18T00:37:10;10.88;;;6.57;;
21630;SDS011;10977;46.802;11.952;2022-10-18T00:39:35;7.53;;;5.95;;
21630;SDS011;10977;46.802;11.952;2022-10-18T00:42:01;9.45;;;6.10;;
21630;SDS011;10977;46.802;11.952;2022-10-18T00:46:54;8.77;;;6.82;;
21630;SDS011;10977;46.802;11.952;2022-10-18T00:49:26;14.93;;;7.05;;
21630;SDS011;10977;46.802;11.952;2022-10-18T00:54:27;8.63;;;6.32;;
21630;SDS011;10977;46.802;11.952;2022-10-18T00:56:55;10.05;;;6.80;;
21630;SDS011;10977;46.802;11.952;2022-10-18T00:59:21;12.02;;;7.32;;
21630;SDS011;10977;46.802;11.952;2022-10-18T01:01:47;11.60;;;7.50;;
21630;SDS011;10977;46.802;11.952;2022-10-18T01:04:13;8.88;;;6.68;;
21630;SDS011;10977;46.802;11.952;2022-10-18T01:06:44;8.65;;;6.80;;
21630;SDS011;10977;46.802;11.952;2022-10-18T01:09:27;9.65;;;6.70;;
21630;SDS011;10977;46.802;11.952;2022-10-18T01:17:27;10.85;;;6.80;;
21630;SDS011;10977;46.802;11.952;2022-10-18T01:20:00;11.57;;;7.00;;
21630;SDS011;10977;46.802;11.952;2022-10-18T01:22:30;10.45;;;7.13;;
21630;SDS011;10977;46.802;11.952;2022-10-18T01:32:58;12.98;;;6.57;;
21630;SDS011;10977;46.802;11.952;2022-10-18T01:35:30;12.10;;;6.97;;
21630;SDS011;10977;46.802;11.952;2022-10-18T01:38:01;10.35;;;7.10;;
21630;SDS011;10977;46.802;11.952;2022-10-18T01:40:31;12.32;;;6.65;;
21630;SDS011;10977;46.802;11.952;2022-10-18T01:42:59;9.18;;;7.00;;
21630;SDS011;10977;46.802;11.952;2022-10-18T01:45:25;9.55;;;5.63;;
21630;SDS011;10977;46.802;11.952;2022-10-18T01:47:52;8.57;;;6.45;;
21630;SDS011;10977;46.802;11.952;2022-10-18T01:50:31;16.10;;;9.80;;
21630;SDS011;10977;46.802;11.952;2022-10-18T01:52:58;13.90;;;9.30;;
21630;SDS011;10977;46.802;11.952;2022-10-18T01:55:30;8.88;;;6.90;;
21630;SDS011;10977;46.802;11.952;2022-10-18T02:00:40;10.80;;;7.45;;
21630;SDS011;10977;46.802;11.952;2022-10-18T02:05:45;8.80;;;6.60;;
21630;SDS011;10977;46.802;11.952;2022-10-18T02:08:25;10.80;;;6.95;;
21630;SDS011;10977;46.802;11.952;2022-10-18T02:11:00;11.20;;;6.85;;
21630;SDS011;10977;46.802;11.952;2022-10-18T02:13:34;10.73;;;7.30;;
21630;SDS011;10977;46.802;11.952;2022-10-18T02:16:05;9.10;;;6.38;;
21630;SDS011;10977;46.802;11.952;2022-10-18T02:18:41;8.52;;;6.80;;
21630;SDS011;10977;46.802;11.952;2022-10-18T02:21:12;7.25;;;5.75;;
21630;SDS011;10977;46.802;11.952;2022-10-18T02:23:42;10.35;;;6.93;;
21630;SDS011;10977;46.802;11.952;2022-10-18T02:26:09;7.35;;;6.25;;
21630;SDS011;10977;46.802;11.952;2022-10-18T02:28:35;9.60;;;6.70;;
21630;SDS011;10977;46.802;11.952;2022-10-18T02:33:58;8.63;;;6.10;;
21630;SDS011;10977;46.802;11.952;2022-10-18T02:36:39;11.95;;;6.53;;
21630;SDS011;10977;46.802;11.952;2022-10-18T02:39:18;10.18;;;6.53;;
21630;SDS011;10977;46.802;11.952;2022-10-18T02:41:47;8.90;;;5.93;;
21630;SDS011;10977;46.802;11.952;2022-10-18T02:44:13;10.52;;;6.40;;
21630;SDS011;10977;46.802;11.952;2022-10-18T02:46:38;10.00;;;6.82;;
21630;SDS011;10977;46.802;11.952;2022-10-18T02:49:04;9.63;;;6.68;;
21630;SDS011;10977;46.802;11.952;2022-10-18T02:51:29;9.05;;;6.60;;
21630;SDS011;10977;46.802;11.952;2022-10-18T02:53:55;8.65;;;6.55;;
21630;SDS011;10977;46.802;11.952;2022-10-18T02:56:20;12.00;;;7.22;;
21630;SDS011;10977;46.802;11.952;2022-10-18T02:58:45;9.75;;;6.38;;
21630;SDS011;10977;46.802;11.952;2022-10-18T03:01:11;9.15;;;6.20;;
21630;SDS011;10977;46.802;11.952;2022-10-18T03:03:36;11.52;;;6.40;;
21630;SDS011;10977;46.802;11.952;2022-10-18T03:06:01;10.18;;;6.60;;
21630;SDS011;10977;46.802;11.952;2022-10-18T03:08:27;10.23;;;6.50;;
21630;SDS011;10977;46.802;11.952;2022-10-18T03:10:52;7.85;;;6.00;;
21630;SDS011;10977;46.802;11.952;2022-10-18T03:13:17;13.30;;;6.47;;
21630;SDS011;10977;46.802;11.952;2022-10-18T03:15:43;9.20;;;6.55;;
21630;SDS011;10977;46.802;11.952;2022-10-18T03:18:09;11.52;;;6.32;;
21630;SDS011;10977;46.802;11.952;2022-10-18T03:20:34;8.43;;;6.53;;
21630;SDS011;10977;46.802;11.952;2022-10-18T03:23:00;9.43;;;6.25;;
21630;SDS011;10977;46.802;11.952;2022-10-18T03:25:25;8.73;;;6.38;;
21630;SDS011;10977;46.802;11.952;2022-10-18T03:27:50;11.30;;;8.07;;
21630;SDS011;10977;46.802;11.952;2022-10-18T03:30:16;21.38;;;15.27;;
21630;SDS011;10977;46.802;11.952;2022-10-18T03:32:41;10.57;;;8.07;;
21630;SDS011;10977;46.802;11.952;2022-10-18T03:35:07;10.27;;;7.28;;
21630;SDS011;10977;46.802;11.952;2022-10-18T03:37:33;9.43;;;7.20;;
21630;SDS011;10977;46.802;11.952;2022-10-18T03:39:59;11.57;;;7.35;;
21630;SDS011;10977;46.802;11.952;2022-10-18T03:42:25;9.43;;;6.75;;
21630;SDS011;10977;46.802;11.952;2022-10-18T03:44:50;9.82;;;7.38;;
21630;SDS011;10977;46.802;11.952;2022-10-18T03:47:16;9.15;;;6.85;;
21630;SDS011;10977;46.802;11.952;2022-10-18T03:49:41;9.63;;;7.15;;
21630;SDS011;10977;46.802;11.952;2022-10-18T03:52:06;21.65;;;15.23;;
21630;SDS011;10977;46.802;11.952;2022-10-18T03:54:32;23.52;;;15.63;;
21630;SDS011;10977;46.802;11.952;2022-10-18T03:56:57;16.60;;;11.52;;
21630;SDS011;10977;46.802;11.952;2022-10-18T03:59:22;13.82;;;8.73;;
21630;SDS011;10977;46.802;11.952;2022-10-18T04:01:48;9.40;;;6.82;;
21630;SDS011;10977;46.802;11.952;2022-10-18T04:04:13;10.65;;;7.32;;
21630;SDS011;10977;46.802;11.952;2022-10-18T04:06:39;10.70;;;7.57;;
21630;SDS011;10977;46.802;11.952;2022-10-18T04:09:04;9.32;;;6.53;;
21630;SDS011;10977;46.802;11.952;2022-10-18T04:11:29;10.63;;;6.47;;
21630;SDS011;10977;46.802;11.952;2022-10-18T04:13:55;13.20;;;6.22;;
21630;SDS011;10977;46.802;11.952;2022-10-18T04:16:21;11.35;;;6.18;;
21630;SDS011;10977;46.802;11.952;2022-10-18T04:18:46;10.48;;;6.40;;
21630;SDS011;10977;46.802;11.952;2022-10-18T04:21:11;8.98;;;6.15;;
21630;SDS011;10977;46.802;11.952;2022-10-18T04:23:37;11.48;;;7.07;;
21630;SDS011;10977;46.802;11.952;2022-10-18T04:26:02;20.38;;;14.73;;
21630;SDS011;10977;46.802;11.952;2022-10-18T04:28:27;18.35;;;13.18;;
21630;SDS011;10977;46.802;11.952;2022-10-18T04:30:53;12.00;;;8.63;;
21630;SDS011;10977;46.802;11.952;2022-10-18T04:33:18;14.55;;;7.63;;
21630;SDS011;10977;46.802;11.952;2022-10-18T04:35:46;11.27;;;7.53;;
21630;SDS011;10977;46.802;11.952;2022-10-18T04:38:11;13.45;;;7.50;;
21630;SDS011;10977;46.802;11.952;2022-10-18T04:40:38;22.27;;;12.45;;
21630;SDS011;10977;46.802;11.952;2022-10-18T04:43:04;31.40;;;17.55;;
21630;SDS011;10977;46.802;11.952;2022-10-18T04:45:29;19.35;;;11.98;;
21630;SDS011;10977;46.802;11.952;2022-10-18T04:47:55;17.55;;;9.70;;
21630;SDS011;10977;46.802;11.952;2022-10-18T04:50:20;11.45;;;8.30;;
21630;SDS011;10977;46.802;11.952;2022-10-18T04:52:45;13.45;;;8.15;;
21630;SDS011;10977;46.802;11.952;2022-10-18T04:55:11;11.15;;;7.95;;
21630;SDS011;10977;46.802;11.952;2022-10-18T04:57:36;11.30;;;7.82;;
21630;SDS011;10977;46.802;11.952;2022-10-18T05:00:02;11.55;;;7.80;;
21630;SDS011;10977;46.802;11.952;2022-10-18T05:02:28;11.18;;;7.60;;
21630;SDS011;10977;46.802;11.952;2022-10-18T05:04:53;10.38;;;7.78;;
21630;SDS011;10977;46.802;11.952;2022-10-18T05:07:18;11.00;;;7.82;;
21630;SDS011;10977;46.802;11.952;2022-10-18T05:09:44;11.88;;;7.78;;
21630;SDS011;10977;46.802;11.952;2022-10-18T05:12:09;12.73;;;8.55;;
21630;SDS011;10977;46.802;11.952;2022-10-18T05:14:34;17.27;;;8.68;;
21630;SDS011;10977;46.802;11.952;2022-10-18T05:17:01;13.23;;;7.80;;
21630;SDS011;10977;46.802;11.952;2022-10-18T05:19:26;8.75;;;6.53;;
21630;SDS011;10977;46.802;11.952;2022-10-18T05:21:51;12.57;;;7.90;;
21630;SDS011;10977;46.802;11.952;2022-10-18T05:24:17;19.10;;;10.15;;
21630;SDS011;10977;46.802;11.952;2022-10-18T05:26:42;15.73;;;10.82;;
21630;SDS011;10977;46.802;11.952;2022-10-18T05:29:08;14.68;;;10.43;;
21630;SDS011;10977;46.802;11.952;2022-10-18T05:31:33;16.42;;;11.80;;
21630;SDS011;10977;46.802;11.952;2022-10-18T05:33:58;16.52;;;10.35;;
21630;SDS011;10977;46.802;11.952;2022-10-18T05:36:25;16.30;;;10.73;;
21630;SDS011;10977;46.802;11.952;2022-10-18T05:38:50;14.52;;;9.40;;
21630;SDS011;10977;46.802;11.952;2022-10-18T05:41:17;14.70;;;9.90;;
21630;SDS011;10977;46.802;11.952;2022-10-18T05:43:42;13.50;;;9.55;;
21630;SDS011;10977;46.802;11.952;2022-10-18T05:46:08;19.27;;;12.10;;
21630;SDS011;10977;46.802;11.952;2022-10-18T05:48:34;31.90;;;20.00;;
21630;SDS011;10977;46.802;11.952;2022-10-18T05:51:00;22.75;;;15.27;;
21630;SDS011;10977;46.802;11.952;2022-10-18T05:53:26;19.40;;;12.35;;
21630;SDS011;10977;46.802;11.952;2022-10-18T05:55:52;15.40;;;10.63;;
21630;SDS011;10977;46.802;11.952;2022-10-18T05:58:17;12.65;;;9.45;;
21630;SDS011;10977;46.802;11.952;2022-10-18T06:00:42;13.23;;;9.95;;
21630;SDS011;10977;46.802;11.952;2022-10-18T06:03:08;10.68;;;8.82;;
21630;SDS011;10977;46.802;11.952;2022-10-18T06:05:34;12.95;;;9.07;;
21630;SDS011;10977;46.802;11.952;2022-10-18T06:07:59;14.65;;;8.57;;
21630;SDS011;10977;46.802;11.952;2022-10-18T06:10:25;14.02;;;8.57;;
21630;SDS011;10977;46.802;11.952;2022-10-18T06:12:50;10.30;;;8.00;;
21630;SDS011;10977;46.802;11.952;2022-10-18T06:15:16;15.55;;;7.80;;
21630;SDS011;10977;46.802;11.952;2022-10-18T06:17:41;15.02;;;8.13;;
21630;SDS011;10977;46.802;11.952;2022-10-18T06:20:06;15.65;;;9.32;;
21630;SDS011;10977;46.802;11.952;2022-10-18T06:22:32;13.85;;;8.95;;
21630;SDS011;10977;46.802;11.952;2022-10-18T06:24:58;12.10;;;8.10;;
21630;SDS011;10977;46.802;11.952;2022-10-18T06:27:24;15.15;;;8.07;;
21630;SDS011;10977;46.802;11.952;2022-10-18T06:29:49;13.10;;;8.65;;
21630;SDS011;10977;46.802;11.952;2022-10-18T06:32:14;15.25;;;10.57;;
21630;SDS011;10977;46.802;11.952;2022-10-18T06:34:40;33.28;;;13.70;;
21630;SDS011;10977;46.802;11.952;2022-10-18T06:37:05;161.23;;;26.48;;
21630;SDS011;10977;46.802;11.952;2022-10-18T06:39:31;62.75;;;25.02;;
21630;SDS011;10977;46.802;11.952;2022-10-18T06:41:57;73.68;;;27.20;;
21630;SDS011;10977;46.802;11.952;2022-10-18T06:44:22;38.53;;;19.48;;
21630;SDS011;10977;46.802;11.952;2022-10-18T06:46:48;176.98;;;38.63;;
21630;SDS011;10977;46.802;11.952;2022-10-18T06:49:14;84.75;;;36.22;;
21630;SDS011;10977;46.802;11.952;2022-10-18T06:51:40;119.63;;;46.85;;
21630;SDS011;10977;46.802;11.952;2022-10-18T06:54:07;73.03;;;37.75;;
21630;SDS011;10977;46.802;11.952;2022-10-18T06:56:32;68.03;;;30.75;;
21630;SDS011;10977;46.802;11.952;2022-10-18T06:58:59;65.35;;;27.58;;
21630;SDS011;10977;46.802;11.952;2022-10-18T07:01:25;53.55;;;27.98;;
21630;SDS011;10977;46.802;11.952;2022-10-18T07:03:52;54.88;;;27.00;;
21630;SDS011;10977;46.802;11.952;2022-10-18T07:06:19;54.22;;;24.13;;
21630;SDS011;10977;46.802;11.952;2022-10-18T07:08:46;44.08;;;23.70;;
21630;SDS011;10977;46.802;11.952;2022-10-18T07:11:16;86.22;;;25.90;;
21630;SDS011;10977;46.802;11.952;2022-10-18T07:13:43;42.42;;;21.90;;
21630;SDS011;10977;46.802;11.952;2022-10-18T07:16:10;33.72;;;19.27;;
21630;SDS011;10977;46.802;11.952;2022-10-18T07:18:38;34.10;;;16.13;;
21630;SDS011;10977;46.802;11.952;2022-10-18T07:21:09;33.20;;;14.95;;
21630;SDS011;10977;46.802;11.952;2022-10-18T07:23:38;28.67;;;14.27;;
21630;SDS011;10977;46.802;11.952;2022-10-18T07:26:12;25.63;;;13.25;;
21630;SDS011;10977;46.802;11.952;2022-10-18T07:28:44;45.75;;;12.40;;
21630;SDS011;10977;46.802;11.952;2022-10-18T07:31:11;21.50;;;10.20;;
21630;SDS011;10977;46.802;11.952;2022-10-18T07:33:37;25.92;;;9.05;;
21630;SDS011;10977;46.802;11.952;2022-10-18T07:36:06;41.28;;;8.07;;
21630;SDS011;10977;46.802;11.952;2022-10-18T07:38:33;17.90;;;8.73;;
21630;SDS011;10977;46.802;11.952;2022-10-18T07:41:00;14.07;;;8.68;;
21630;SDS011;10977;46.802;11.952;2022-10-18T07:43:26;15.48;;;8.90;;
21630;SDS011;10977;46.802;11.952;2022-10-18T07:45:52;11.57;;;8.68;;
21630;SDS011;10977;46.802;11.952;2022-10-18T07:48:19;12.45;;;8.65;;
21630;SDS011;10977;46.802;11.952;2022-10-18T07:50:45;14.90;;;8.43;;
21630;SDS011;10977;46.802;11.952;2022-10-18T07:53:10;12.23;;;8.70;;
21630;SDS011;10977;46.802;11.952;2022-10-18T07:55:35;14.38;;;8.98;;
21630;SDS011;10977;46.802;11.952;2022-10-18T07:58:01;12.30;;;8.32;;
21630;SDS011;10977;46.802;11.952;2022-10-18T08:00:26;13.65;;;8.45;;
21630;SDS011;10977;46.802;11.952;2022-10-18T08:02:55;15.90;;;7.78;;
21630;SDS011;10977;46.802;11.952;2022-10-18T08:05:23;11.07;;;7.05;;
21630;SDS011;10977;46.802;11.952;2022-10-18T08:07:50;12.18;;;7.72;;
21630;SDS011;10977;46.802;11.952;2022-10-18T08:10:16;9.18;;;7.43;;
21630;SDS011;10977;46.802;11.952;2022-10-18T08:12:42;12.55;;;7.40;;
21630;SDS011;10977;46.802;11.952;2022-10-18T08:15:07;9.85;;;7.25;;
21630;SDS011;10977;46.802;11.952;2022-10-18T08:17:33;9.60;;;6.55;;
21630;SDS011;10977;46.802;11.952;2022-10-18T08:19:58;9.57;;;6.90;;
21630;SDS011;10977;46.802;11.952;2022-10-18T08:22:24;8.68;;;7.10;;
21630;SDS011;10977;46.802;11.952;2022-10-18T08:24:49;10.82;;;7.53;;
21630;SDS011;10977;46.802;11.952;2022-10-18T08:27:14;11.23;;;7.03;;
21630;SDS011;10977;46.802;11.952;2022-10-18T08:29:40;10.75;;;7.88;;
21630;SDS011;10977;46.802;11.952;2022-10-18T08:32:05;9.52;;;7.57;;
21630;SDS011;10977;46.802;11.952;2022-10-18T08:34:32;11.98;;;7.95;;
21630;SDS011;10977;46.802;11.952;2022-10-18T08:37:00;13.13;;;8.00;;
21630;SDS011;10977;46.802;11.952;2022-10-18T08:39:27;9.40;;;7.63;;
21630;SDS011;10977;46.802;11.952;2022-10-18T08:42:07;12.60;;;7.70;;
21630;SDS011;10977;46.802;11.952;2022-10-18T08:44:41;10.32;;;7.03;;
21630;SDS011;10977;46.802;11.952;2022-10-18T08:47:16;10.25;;;7.15;;
21630;SDS011;10977;46.802;11.952;2022-10-18T08:57:36;10.15;;;7.18;;
21630;SDS011;10977;46.802;11.952;2022-10-18T09:00:20;10.60;;;7.97;;
21630;SDS011;10977;46.802;11.952;2022-10-18T09:16:20;12.05;;;8.05;;
21630;SDS011;10977;46.802;11.952;2022-10-18T09:21:51;9.80;;;7.18;;
21630;SDS011;10977;46.802;11.952;2022-10-18T09:26:56;9.52;;;7.43;;
21630;SDS011;10977;46.802;11.952;2022-10-18T09:37:10;9.00;;;7.20;;
21630;SDS011;10977;46.802;11.952;2022-10-18T09:39:37;10.45;;;8.23;;
21630;SDS011;10977;46.802;11.952;2022-10-18T09:42:26;8.43;;;7.38;;
21630;SDS011;10977;46.802;11.952;2022-10-18T09:45:05;9.15;;;7.15;;
21630;SDS011;10977;46.802;11.952;2022-10-18T09:47:49;11.00;;;7.47;;
21630;SDS011;10977;46.802;11.952;2022-10-18T09:50:35;9.80;;;6.82;;
21630;SDS011;10977;46.802;11.952;2022-10-18T09:56:34;6.38;;;5.68;;
21630;SDS011;10977;46.802;11.952;2022-10-18T09:58:47;6.40;;;5.80;;
21630;SDS011;10977;46.802;11.952;2022-10-18T10:01:17;5.30;;;4.80;;
21630;SDS011;10977;46.802;11.952;2022-10-18T10:03:45;5.75;;;4.97;;
21630;SDS011;10977;46.802;11.952;2022-10-18T10:08:36;5.55;;;5.03;;
21630;SDS011;10977;46.802;11.952;2022-10-18T10:11:07;5.32;;;4.82;;
21630;SDS011;10977;46.802;11.952;2022-10-18T10:13:56;5.13;;;4.63;;
21630;SDS011;10977;46.802;11.952;2022-10-18T10:16:30;6.05;;;5.45;;
21630;SDS011;10977;46.802;11.952;2022-10-18T10:18:55;4.88;;;4.38;;
21630;SDS011;10977;46.802;11.952;2022-10-18T10:21:20;5.18;;;4.68;;
21630;SDS011;10977;46.802;11.952;2022-10-18T10:23:56;5.47;;;4.97;;
21630;SDS011;10977;46.802;11.952;2022-10-18T10:28:52;5.57;;;4.72;;
21630;SDS011;10977;46.802;11.952;2022-10-18T10:33:58;5.47;;;4.65;;
21630;SDS011;10977;46.802;11.952;2022-10-18T10:36:25;6.15;;;4.22;;
21630;SDS011;10977;46.802;11.952;2022-10-18T10:39:01;4.63;;;4.22;;
21630;SDS011;10977;46.802;11.952;2022-10-18T10:41:27;4.10;;;3.80;;
21630;SDS011;10977;46.802;11.952;2022-10-18T10:43:52;4.82;;;4.38;;
21630;SDS011;10977;46.802;11.952;2022-10-18T10:46:18;6.63;;;3.90;;
21630;SDS011;10977;46.802;11.952;2022-10-18T10:48:46;4.70;;;4.30;;
21630;SDS011;10977;46.802;11.952;2022-10-18T10:51:33;4.28;;;3.90;;
21630;SDS011;10977;46.802;11.952;2022-10-18T10:54:04;4.00;;;3.70;;
21630;SDS011;10977;46.802;11.952;2022-10-18T10:57:23;8.15;;;4.18;;
21630;SDS011;10977;46.802;11.952;2022-10-18T10:59:48;4.70;;;4.22;;
21630;SDS011;10977;46.802;11.952;2022-10-18T11:04:45;4.57;;;4.18;;
21630;SDS011;10977;46.802;11.952;2022-10-18T11:12:28;6.17;;;5.67;;
21630;SDS011;10977;46.802;11.952;2022-10-18T11:20:21;4.63;;;4.15;;
21630;SDS011;10977;46.802;11.952;2022-10-18T11:25:20;5.55;;;4.50;;
21630;SDS011;10977;46.802;11.952;2022-10-18T11:27:57;4.60;;;4.20;;
21630;SDS011;10977;46.802;11.952;2022-10-18T11:33:35;5.22;;;4.68;;
21630;SDS011;10977;46.802;11.952;2022-10-18T11:36:09;5.93;;;4.85;;
21630;SDS011;10977;46.802;11.952;2022-10-18T11:41:36;5.53;;;5.03;;
21630;SDS011;10977;46.802;11.952;2022-10-18T11:44:30;6.47;;;5.88;;
21630;SDS011;10977;46.802;11.952;2022-10-18T11:47:20;6.68;;;4.60;;
21630;SDS011;10977;46.802;11.952;2022-10-18T11:50:20;5.30;;;4.80;;
21630;SDS011;10977;46.802;11.952;2022-10-18T11:56:11;5.70;;;5.20;;
21630;SDS011;10977;46.802;11.952;2022-10-18T12:04:47;5.00;;;4.47;;
21630;SDS011;10977;46.802;11.952;2022-10-18T12:07:16;8.05;;;5.32;;
21630;SDS011;10977;46.802;11.952;2022-10-18T12:09:45;5.93;;;5.32;;
21630;SDS011;10977;46.802;11.952;2022-10-18T12:12:26;5.20;;;4.80;;
21630;SDS011;10977;46.802;11.952;2022-10-18T12:14:56;5.57;;;4.68;;
21630;SDS011;10977;46.802;11.952;2022-10-18T12:17:46;4.88;;;4.38;;
21630;SDS011;10977;46.802;11.952;2022-10-18T12:25:54;5.07;;;4.65;;
21630;SDS011;10977;46.802;11.952;2022-10-18T12:34:02;5.10;;;4.70;;
21630;SDS011;10977;46.802;11.952;2022-10-18T12:36:46;5.65;;;4.40;;
21630;SDS011;10977;46.802;11.952;2022-10-18T12:42:16;5.03;;;4.50;;
21630;SDS011;10977;46.802;11.952;2022-10-18T12:44:45;11.25;;;10.23;;
21630;SDS011;10977;46.802;11.952;2022-10-18T12:47:21;8.70;;;8.00;;
21630;SDS011;10977;46.802;11.952;2022-10-18T12:49:55;6.95;;;6.35;;
21630;SDS011;10977;46.802;11.952;2022-10-18T12:52:24;7.00;;;5.18;;
21630;SDS011;10977;46.802;11.952;2022-10-18T13:03:28;5.13;;;4.68;;
21630;SDS011;10977;46.802;11.952;2022-10-18T13:08:34;5.22;;;4.43;;
21630;SDS011;10977;46.802;11.952;2022-10-18T13:13:52;4.57;;;4.25;;
21630;SDS011;10977;46.802;11.952;2022-10-18T13:24:37;4.85;;;4.45;;
21630;SDS011;10977;46.802;11.952;2022-10-18T13:32:27;4.57;;;4.28;;
21630;SDS011;10977;46.802;11.952;2022-10-18T13:34:59;5.22;;;4.72;;
21630;SDS011;10977;46.802;11.952;2022-10-18T13:37:24;4.32;;;3.92;;
21630;SDS011;10977;46.802;11.952;2022-10-18T13:42:48;4.80;;;4.30;;
21630;SDS011;10977;46.802;11.952;2022-10-18T13:50:53;5.15;;;4.55;;
21630;SDS011;10977;46.802;11.952;2022-10-18T13:56:17;5.57;;;4.75;;
21630;SDS011;10977;46.802;11.952;2022-10-18T14:01:44;5.10;;;4.60;;
21630;SDS011;10977;46.802;11.952;2022-10-18T14:07:04;7.03;;;4.80;;
21630;SDS011;10977;46.802;11.952;2022-10-18T14:09:45;5.20;;;4.68;;
21630;SDS011;10977;46.802;11.952;2022-10-18T14:17:48;7.60;;;6.00;;
21630;SDS011;10977;46.802;11.952;2022-10-18T14:25:26;7.13;;;5.60;;
21630;SDS011;10977;46.802;11.952;2022-10-18T14:28:05;6.70;;;6.00;;
21630;SDS011;10977;46.802;11.952;2022-10-18T14:30:59;5.93;;;5.35;;
21630;SDS011;10977;46.802;11.952;2022-10-18T14:36:07;6.82;;;6.15;;
21630;SDS011;10977;46.802;11.952;2022-10-18T14:38:36;6.40;;;5.80;;
21630;SDS011;10977;46.802;11.952;2022-10-18T14:41:13;40.05;;;34.70;;
21630;SDS011;10977;46.802;11.952;2022-10-18T14:43:42;16.65;;;14.93;;
21630;SDS011;10977;46.802;11.952;2022-10-18T14:46:29;11.55;;;10.45;;
21630;SDS011;10977;46.802;11.952;2022-10-18T14:48:55;38.13;;;11.10;;
21630;SDS011;10977;46.802;11.952;2022-10-18T14:51:21;14.98;;;7.55;;
21630;SDS011;10977;46.802;11.952;2022-10-18T14:53:46;8.60;;;6.65;;
21630;SDS011;10977;46.802;11.952;2022-10-18T14:56:18;7.10;;;5.88;;
21630;SDS011;10977;46.802;11.952;2022-10-18T14:58:47;9.25;;;5.55;;
21630;SDS011;10977;46.802;11.952;2022-10-18T15:01:16;8.70;;;5.47;;
21630;SDS011;10977;46.802;11.952;2022-10-18T15:03:43;6.93;;;5.50;;
21630;SDS011;10977;46.802;11.952;2022-10-18T15:06:11;8.18;;;5.50;;
21630;SDS011;10977;46.802;11.952;2022-10-18T15:08:41;6.85;;;5.15;;
21630;SDS011;10977;46.802;11.952;2022-10-18T15:11:07;10.50;;;6.05;;
21630;SDS011;10977;46.802;11.952;2022-10-18T15:13:36;6.68;;;5.68;;
21630;SDS011;10977;46.802;11.952;2022-10-18T15:16:14;9.05;;;7.20;;
21630;SDS011;10977;46.802;11.952;2022-10-18T15:19:28;8.23;;;7.18;;
21630;SDS011;10977;46.802;11.952;2022-10-18T15:21:48;8.63;;;6.38;;
21630;SDS011;10977;46.802;11.952;2022-10-18T15:24:20;11.38;;;6.95;;
21630;SDS011;10977;46.802;11.952;2022-10-18T15:26:53;6.40;;;5.70;;
21630;SDS011;10977;46.802;11.952;2022-10-18T15:29:23;8.30;;;6.00;;
21630;SDS011;10977;46.802;11.952;2022-10-18T15:31:49;13.10;;;6.20;;
21630;SDS011;10977;46.802;11.952;2022-10-18T15:36:48;9.63;;;5.53;;
21630;SDS011;10977;46.802;11.952;2022-10-18T15:46:49;7.82;;;5.45;;
21630;SDS011;10977;46.802;11.952;2022-10-18T15:51:48;16.65;;;9.98;;
21630;SDS011;10977;46.802;11.952;2022-10-18T15:54:34;13.68;;;8.00;;
21630;SDS011;10977;46.802;11.952;2022-10-18T15:57:07;10.23;;;7.10;;
21630;SDS011;10977;46.802;11.952;2022-10-18T15:59:35;10.40;;;6.57;;
21630;SDS011;10977;46.802;11.952;2022-10-18T16:02:13;13.50;;;6.97;;
21630;SDS011;10977;46.802;11.952;2022-10-18T16:04:39;12.65;;;6.53;;
21630;SDS011;10977;46.802;11.952;2022-10-18T16:07:04;10.88;;;6.03;;
21630;SDS011;10977;46.802;11.952;2022-10-18T16:09:29;12.40;;;6.60;;
21630;SDS011;10977;46.802;11.952;2022-10-18T16:11:55;11.90;;;6.15;;
21630;SDS011;10977;46.802;11.952;2022-10-18T16:14:22;12.63;;;6.18;;
21630;SDS011;10977;46.802;11.952;2022-10-18T16:16:49;12.07;;;5.97;;
21630;SDS011;10977;46.802;11.952;2022-10-18T16:19:16;16.52;;;9.75;;
21630;SDS011;10977;46.802;11.952;2022-10-18T16:21:43;12.90;;;8.32;;
21630;SDS011;10977;46.802;11.952;2022-10-18T16:24:09;11.23;;;6.93;;
21630;SDS011;10977;46.802;11.952;2022-10-18T16:26:35;11.18;;;6.75;;
21630;SDS011;10977;46.802;11.952;2022-10-18T16:29:01;12.50;;;6.32;;
21630;SDS011;10977;46.802;11.952;2022-10-18T16:31:29;10.50;;;6.28;;
21630;SDS011;10977;46.802;11.952;2022-10-18T16:33:55;14.40;;;7.03;;
21630;SDS011;10977;46.802;11.952;2022-10-18T16:36:22;7.80;;;6.35;;
21630;SDS011;10977;46.802;11.952;2022-10-18T16:38:50;11.02;;;7.20;;
21630;SDS011;10977;46.802;11.952;2022-10-18T16:41:15;9.20;;;6.50;;
21630;SDS011;10977;46.802;11.952;2022-10-18T16:43:42;10.68;;;7.05;;
21630;SDS011;10977;46.802;11.952;2022-10-18T16:46:09;9.98;;;6.30;;
21630;SDS011;10977;46.802;11.952;2022-10-18T16:48:41;7.35;;;5.68;;
21630;SDS011;10977;46.802;11.952;2022-10-18T16:51:07;11.40;;;6.40;;
21630;SDS011;10977;46.802;11.952;2022-10-18T16:53:34;14.35;;;6.38;;
21630;SDS011;10977;46.802;11.952;2022-10-18T16:56:00;6.72;;;5.47;;
21630;SDS011;10977;46.802;11.952;2022-10-18T16:58:27;7.53;;;6.03;;
21630;SDS011;10977;46.802;11.952;2022-10-18T17:00:54;10.30;;;6.30;;
21630;SDS011;10977;46.802;11.952;2022-10-18T17:03:20;10.07;;;6.63;;
21630;SDS011;10977;46.802;11.952;2022-10-18T17:05:45;8.70;;;6.95;;
21630;SDS011;10977;46.802;11.952;2022-10-18T17:08:21;11.68;;;8.82;;
21630;SDS011;10977;46.802;11.952;2022-10-18T17:10:49;18.77;;;7.95;;
21630;SDS011;10977;46.802;11.952;2022-10-18T17:13:17;10.50;;;7.60;;
21630;SDS011;10977;46.802;11.952;2022-10-18T17:15:43;13.75;;;7.03;;
21630;SDS011;10977;46.802;11.952;2022-10-18T17:18:09;12.05;;;7.35;;
21630;SDS011;10977;46.802;11.952;2022-10-18T17:20:39;15.20;;;7.15;;
21630;SDS011;10977;46.802;11.952;2022-10-18T17:23:06;9.25;;;6.80;;
21630;SDS011;10977;46.802;11.952;2022-10-18T17:25:33;8.57;;;6.70;;
21630;SDS011;10977;46.802;11.952;2022-10-18T17:28:00;11.75;;;6.82;;
21630;SDS011;10977;46.802;11.952;2022-10-18T17:30:25;10.38;;;6.10;;
21630;SDS011;10977;46.802;11.952;2022-10-18T17:32:51;13.32;;;6.90;;
21630;SDS011;10977;46.802;11.952;2022-10-18T17:35:16;11.50;;;7.18;;
21630;SDS011;10977;46.802;11.952;2022-10-18T17:37:41;9.95;;;6.60;;
21630;SDS011;10977;46.802;11.952;2022-10-18T17:40:07;8.98;;;6.15;;
21630;SDS011;10977;46.802;11.952;2022-10-18T17:42:33;12.10;;;7.60;;